Time;durP1;ratioP1;P1;durP2;ratioP2;P2;SDS_P1;SDS_P2;PMS_P1;PMS_P2;Temp;Humidity;BMP_temperature;BMP_pressure;BME280_temperature;BME280_humidity;BME280_pressure;Samples;Min_cycle;Max_cycle;Signal;HPM_P1;HPM_P2
2021/06/09 00:00:24;;;;;;;7.75;7.05;;;;;;;17.08;94.22;99281.47;1641507;86;21533;-73
2021/06/09 00:02:51;;;;;;;6.90;6.12;;;;;;;17.05;94.16;99277.46;1664065;86;21018;-73
2021/06/09 00:05:18;;;;;;;6.80;6.20;;;;;;;17.03;94.27;99275.59;1664900;86;21508;-70
2021/06/09 00:07:44;;;;;;;7.37;6.72;;;;;;;17.01;94.08;99281.89;1664813;86;20943;-74
2021/06/09 00:10:11;;;;;;;7.60;6.90;;;;;;;17.03;93.88;99275.59;1650958;86;21058;-71
2021/06/09 00:12:38;;;;;;;7.75;7.05;;;;;;;17.04;93.37;99276.39;1660339;86;20990;-72
2021/06/09 00:15:12;;;;;;;7.85;6.25;;;;;;;17.05;93.10;99268.50;1665110;86;20954;-73
2021/06/09 00:17:38;;;;;;;8.40;6.73;;;;;;;17.04;92.75;99271.77;1658823;86;21836;-75
2021/06/09 00:20:09;;;;;;;6.65;5.87;;;;;;;17.04;92.61;99265.53;1639502;86;20995;-73
2021/06/09 00:22:35;;;;;;;8.25;7.58;;;;;;;17.03;92.63;99262.55;1642389;86;21026;-76
2021/06/09 00:25:09;;;;;;;10.23;6.80;;;;;;;17.02;92.56;99264.49;1639293;87;21068;-73
2021/06/09 00:27:33;;;;;;;7.25;6.55;;;;;;;16.99;92.57;99259.64;1665777;86;21044;-74
2021/06/09 00:29:59;;;;;;;6.97;6.28;;;;;;;16.98;92.73;99260.74;1666485;84;21066;-74
2021/06/09 00:32:25;;;;;;;7.78;6.80;;;;;;;16.94;92.73;99250.23;1666036;86;21571;-69
2021/06/09 00:34:52;;;;;;;7.55;6.95;;;;;;;16.90;92.95;99250.04;1666719;86;21026;-69
2021/06/09 00:37:18;;;;;;;7.70;7.00;;;;;;;16.89;92.94;99245.71;1647740;86;21025;-73
2021/06/09 00:39:44;;;;;;;8.35;7.20;;;;;;;16.88;92.99;99246.81;1640079;86;21564;-75
2021/06/09 00:42:11;;;;;;;8.00;7.10;;;;;;;16.86;93.00;99249.59;1666418;85;21060;-71
2021/06/09 00:44:38;;;;;;;6.92;6.33;;;;;;;16.84;93.01;99245.81;1666457;86;21112;-69
2021/06/09 00:47:04;;;;;;;7.70;7.00;;;;;;;16.80;93.13;99247.52;1670252;84;21023;-69
2021/06/09 00:49:31;;;;;;;7.78;6.95;;;;;;;16.77;93.19;99248.69;1677164;85;21056;-75
2021/06/09 00:51:57;;;;;;;8.75;8.05;;;;;;;16.77;93.43;99245.97;1649948;86;21080;-74
2021/06/09 00:54:23;;;;;;;9.25;7.85;;;;;;;16.76;93.40;99245.16;1666445;85;21793;-74
2021/06/09 00:56:49;;;;;;;9.00;7.85;;;;;;;16.77;93.19;99242.70;1640643;86;21047;-72
2021/06/09 00:59:16;;;;;;;11.97;7.78;;;;;;;16.76;93.12;99245.71;1666661;86;21021;-71
2021/06/09 01:01:42;;;;;;;8.83;8.10;;;;;;;16.73;93.06;99249.04;1641349;86;21527;-71
2021/06/09 01:04:09;;;;;;;8.08;7.37;;;;;;;16.69;93.13;99243.96;1645156;85;21067;-71
2021/06/09 01:06:36;;;;;;;8.33;7.62;;;;;;;16.68;93.17;99243.70;1669572;84;21000;-71
2021/06/09 01:09:04;;;;;;;8.68;7.12;;;;;;;16.67;93.17;99242.09;1672357;85;20988;-70
2021/06/09 01:11:31;;;;;;;8.80;7.90;;;;;;;16.65;93.15;99253.79;1641762;86;21048;-73
2021/06/09 01:13:57;;;;;;;8.18;7.47;;;;;;;16.61;93.17;99249.52;1638700;86;21049;-72
2021/06/09 01:16:24;;;;;;;15.48;6.87;;;;;;;16.55;93.35;99245.25;1639795;86;21115;-74
2021/06/09 01:18:52;;;;;;;11.43;8.65;;;;;;;16.50;93.44;99250.22;1642381;86;21046;-73
2021/06/09 01:21:28;;;;;;;10.98;8.35;;;;;;;16.45;93.79;99250.31;1650126;86;21000;-72
2021/06/09 01:23:56;;;;;;;9.03;6.37;;;;;;;16.45;93.90;99250.31;1649165;86;21103;-73
2021/06/09 01:26:25;;;;;;;9.40;7.92;;;;;;;16.44;93.84;99247.37;1630457;86;22244;-70
2021/06/09 01:28:54;;;;;;;7.92;7.22;;;;;;;16.46;93.83;99245.14;1639296;87;21015;-72
2021/06/09 01:31:21;;;;;;;9.05;7.78;;;;;;;16.49;93.71;99245.11;1639087;87;21814;-72
2021/06/09 01:33:48;;;;;;;7.60;6.78;;;;;;;16.48;93.62;99253.00;1647027;86;21053;-73
2021/06/09 01:36:16;;;;;;;8.00;7.08;;;;;;;16.47;93.68;99258.16;1636909;87;20955;-78
2021/06/09 01:38:42;;;;;;;7.87;7.17;;;;;;;16.48;93.66;99259.23;1628793;86;21080;-72
2021/06/09 01:41:09;;;;;;;7.75;6.92;;;;;;;16.48;93.63;99257.06;1670422;84;20989;-74
2021/06/09 01:43:36;;;;;;;7.22;6.53;;;;;;;16.47;93.68;99260.88;1642991;87;21146;-74
2021/06/09 01:46:02;;;;;;;9.25;7.70;;;;;;;16.44;93.73;99260.94;1643193;84;20998;-78
2021/06/09 01:48:29;;;;;;;8.05;7.40;;;;;;;16.42;93.79;99263.13;1622109;86;21167;-73
2021/06/09 01:50:55;;;;;;;7.53;6.83;;;;;;;16.41;93.81;99262.06;1668402;86;21531;-72
2021/06/09 01:53:22;;;;;;;7.37;6.67;;;;;;;16.38;93.80;99258.60;1641503;86;21070;-73
2021/06/09 01:55:48;;;;;;;8.63;7.50;;;;;;;16.35;93.92;99260.56;1641399;86;21117;-73
2021/06/09 01:58:17;;;;;;;8.03;7.42;;;;;;;16.31;94.17;99265.76;1619773;86;20955;-73
2021/06/09 02:00:46;;;;;;;9.50;8.70;;;;;;;16.27;94.27;99263.39;1666290;86;21054;-72
2021/06/09 02:03:13;;;;;;;7.87;7.17;;;;;;;16.26;94.46;99271.27;1639546;86;21035;-73
2021/06/09 02:05:41;;;;;;;8.58;7.87;;;;;;;16.23;94.66;99272.42;1658195;86;21077;-72
2021/06/09 02:08:09;;;;;;;7.85;7.05;;;;;;;16.17;94.92;99267.63;1636804;87;21262;-72
2021/06/09 02:10:37;;;;;;;8.48;7.78;;;;;;;16.14;95.35;99266.88;1639187;87;21039;-73
2021/06/09 02:13:07;;;;;;;8.43;7.67;;;;;;;16.10;95.58;99273.45;1639541;87;21078;-72
2021/06/09 02:15:35;;;;;;;8.45;7.75;;;;;;;16.08;95.86;99274.29;1650437;86;21060;-73
2021/06/09 02:18:09;;;;;;;8.53;7.72;;;;;;;16.05;96.06;99268.11;1637859;87;21071;-72
2021/06/09 02:20:46;;;;;;;9.88;8.93;;;;;;;16.02;96.17;99270.59;1652031;86;21141;-73
2021/06/09 02:23:15;;;;;;;9.53;8.03;;;;;;;16.00;96.46;99268.73;1652177;86;21118;-71
2021/06/09 02:25:46;;;;;;;8.45;7.75;;;;;;;15.97;96.60;99274.19;1653281;85;21012;-73
2021/06/09 02:28:13;;;;;;;8.73;8.03;;;;;;;15.99;96.69;99276.06;1653292;86;21049;-71
2021/06/09 02:30:41;;;;;;;9.33;8.15;;;;;;;15.99;96.68;99281.48;1665144;85;21053;-71
2021/06/09 02:33:07;;;;;;;9.83;8.33;;;;;;;16.01;96.75;99273.88;1665203;86;21274;-72
2021/06/09 02:35:36;;;;;;;8.53;7.83;;;;;;;16.03;96.63;99277.63;1664924;85;21577;-72
2021/06/09 02:38:03;;;;;;;8.35;7.72;;;;;;;16.04;96.52;99274.63;1653229;86;21005;-71
2021/06/09 02:40:30;;;;;;;9.68;8.88;;;;;;;16.04;96.43;99276.53;1664928;85;21502;-71
2021/06/09 02:42:57;;;;;;;16.62;9.28;;;;;;;16.05;96.45;99272.73;1664499;85;21050;-71
2021/06/09 02:45:23;;;;;;;9.93;8.93;;;;;;;16.05;96.43;99276.80;1659355;85;21924;-74
2021/06/09 02:47:55;;;;;;;10.13;9.33;;;;;;;16.06;96.44;99282.48;1634383;86;21576;-71
2021/06/09 02:50:22;;;;;;;9.18;8.38;;;;;;;16.04;96.51;99269.75;1634714;87;21027;-71
2021/06/09 02:53:09;;;;;;;9.33;8.53;;;;;;;16.07;96.56;99277.29;1634522;87;21095;-72
2021/06/09 02:55:52;;;;;;;13.80;10.43;;;;;;;16.08;96.48;99274.84;1634501;87;21048;-72
2021/06/09 02:58:37;;;;;;;;;;;;;;;16.12;96.44;99278.56;1652274;86;22075;-71
2021/06/09 03:01:11;;;;;;;9.20;8.40;;;;;;;16.17;96.31;99274.96;1627379;87;20128;-72
2021/06/09 03:04:12;;;;;;;9.60;8.80;;;;;;;16.22;96.17;99275.69;1612712;87;21071;-71
2021/06/09 03:07:03;;;;;;;10.15;8.48;;;;;;;16.25;95.98;99279.19;1633004;87;21055;-72
2021/06/09 03:10:09;;;;;;;9.35;8.50;;;;;;;16.29;95.78;99286.17;1612576;87;21054;-73
2021/06/09 03:13:01;;;;;;;10.38;9.48;;;;;;;16.31;95.69;99283.40;1643200;86;21133;-73
2021/06/09 03:15:32;;;;;;;8.93;8.03;;;;;;;16.27;95.84;99291.08;1659711;86;20996;-72
2021/06/09 03:18:06;;;;;;;7.78;7.08;;;;;;;16.30;95.92;99289.95;1660971;86;21043;-72
2021/06/09 03:21:10;;;;;;;9.98;7.70;;;;;;;16.36;95.73;99283.86;1659970;85;21532;-72
2021/06/09 03:23:57;;;;;;;9.05;7.37;;;;;;;16.41;95.50;99279.16;1638079;86;20997;-72
2021/06/09 03:27:01;;;;;;;8.23;7.35;;;;;;;16.51;94.96;99297.98;1640471;87;21313;-73
2021/06/09 03:29:43;;;;;;;7.40;6.70;;;;;;;16.55;94.58;99292.76;1666411;86;20973;-71
2021/06/09 03:32:15;;;;;;;10.75;9.73;;;;;;;16.55;93.94;99291.41;1641268;86;21041;-71
2021/06/09 03:35:00;;;;;;;9.88;7.70;;;;;;;16.57;93.81;99290.02;1666508;86;21028;-71
2021/06/09 03:37:26;;;;;;;12.75;8.13;;;;;;;16.63;93.53;99293.48;1666588;85;21072;-73
2021/06/09 03:39:57;;;;;;;7.42;6.83;;;;;;;16.68;93.21;99294.75;1666626;85;21264;-71
2021/06/09 03:42:29;;;;;;;9.48;6.90;;;;;;;16.68;93.16;99290.67;1666128;85;21533;-71
2021/06/09 03:44:58;;;;;;;7.67;7.00;;;;;;;16.75;93.19;99288.91;1666679;86;21081;-71
2021/06/09 03:47:24;;;;;;;8.05;7.45;;;;;;;16.83;92.80;99290.95;1666265;85;21052;-74
2021/06/09 03:49:50;;;;;;;11.88;7.78;;;;;;;16.86;92.21;99283.55;1666647;85;21539;-73
2021/06/09 03:52:18;;;;;;;7.42;6.72;;;;;;;16.87;91.70;99282.45;1666417;86;21612;-73
2021/06/09 03:54:50;;;;;;;10.95;7.60;;;;;;;16.88;91.62;99287.56;1633605;86;21052;-74
2021/06/09 03:57:16;;;;;;;11.05;8.48;;;;;;;16.95;91.61;99286.62;1677390;85;21086;-73
2021/06/09 03:59:45;;;;;;;7.25;6.65;;;;;;;17.03;91.34;99290.53;1654844;85;21023;-72
2021/06/09 04:02:12;;;;;;;8.10;7.30;;;;;;;17.09;90.63;99296.67;1678167;85;21007;-72
2021/06/09 04:04:38;;;;;;;11.00;7.72;;;;;;;17.11;90.55;99302.08;1678298;85;21158;-71
2021/06/09 04:07:06;;;;;;;8.93;8.00;;;;;;;17.16;90.26;99303.88;1677958;85;21099;-68
2021/06/09 04:09:32;;;;;;;8.88;7.30;;;;;;;17.19;90.17;99300.00;1677488;85;21011;-70
2021/06/09 04:12:03;;;;;;;7.25;5.87;;;;;;;17.25;90.04;99308.31;1678004;85;20963;-72
2021/06/09 04:14:40;;;;;;;8.00;7.20;;;;;;;17.33;89.46;99306.78;1677569;85;21074;-70
2021/06/09 04:17:07;;;;;;;7.42;6.72;;;;;;;17.39;89.29;99310.47;1677804;85;21007;-71
2021/06/09 04:19:35;;;;;;;8.40;7.67;;;;;;;17.48;88.82;99312.46;1677986;85;20995;-71
2021/06/09 04:22:03;;;;;;;8.90;7.53;;;;;;;17.54;88.50;99307.17;1677432;85;21085;-72
2021/06/09 04:24:36;;;;;;;9.10;8.35;;;;;;;17.62;88.47;99309.20;1680050;85;21067;-73
2021/06/09 04:27:06;;;;;;;9.20;8.40;;;;;;;17.67;87.81;99306.36;1678890;84;20987;-73
2021/06/09 04:29:33;;;;;;;8.25;7.45;;;;;;;17.64;87.20;99300.99;1678583;85;21360;-71
2021/06/09 04:31:59;;;;;;;10.03;8.58;;;;;;;17.68;87.16;99300.63;1678694;84;21003;-72
2021/06/09 04:34:26;;;;;;;8.63;7.28;;;;;;;17.73;87.04;99303.23;1678806;84;21092;-71
2021/06/09 04:36:53;;;;;;;8.28;7.47;;;;;;;17.79;86.86;99303.34;1657085;85;20983;-74
2021/06/09 04:39:20;;;;;;;7.65;7.00;;;;;;;17.87;86.47;99297.75;1678701;85;21091;-70
2021/06/09 04:41:47;;;;;;;13.32;7.95;;;;;;;17.91;85.93;99301.46;1657306;85;21270;-69
2021/06/09 04:44:17;;;;;;;11.22;7.40;;;;;;;18.01;85.85;99303.95;1678810;85;21015;-71
2021/06/09 04:46:41;;;;;;;9.53;6.30;;;;;;;18.13;85.56;99299.33;1678122;85;20987;-72
2021/06/09 04:49:08;;;;;;;7.55;6.85;;;;;;;18.16;83.59;99298.15;1657015;85;21547;-72
2021/06/09 04:51:37;;;;;;;6.92;6.37;;;;;;;18.17;83.71;99303.05;1678971;85;21003;-71
2021/06/09 04:54:04;;;;;;;6.97;6.00;;;;;;;18.21;83.71;99305.39;1657137;85;21336;-71
2021/06/09 04:56:36;;;;;;;7.58;6.97;;;;;;;18.26;83.43;99299.27;1678716;85;21107;-71
2021/06/09 04:59:04;;;;;;;7.37;6.65;;;;;;;18.36;83.13;99304.21;1678696;85;21026;-71
2021/06/09 05:01:30;;;;;;;7.00;6.17;;;;;;;18.43;83.19;99301.84;1679033;85;22248;-71
2021/06/09 05:03:57;;;;;;;10.32;5.95;;;;;;;18.47;82.73;99304.19;1657032;85;21018;-73
2021/06/09 05:06:24;;;;;;;6.62;6.03;;;;;;;18.50;82.60;99296.77;1678563;85;21091;-73
2021/06/09 05:08:50;;;;;;;6.97;6.37;;;;;;;18.54;82.25;99299.14;1657165;85;21014;-71
2021/06/09 05:11:21;;;;;;;7.10;6.47;;;;;;;18.60;82.12;99297.91;1678765;85;21461;-71
2021/06/09 05:13:48;;;;;;;7.00;6.37;;;;;;;18.67;81.62;99300.42;1657045;85;20987;-71
2021/06/09 05:16:15;;;;;;;6.20;5.70;;;;;;;18.75;80.91;99307.60;1678730;85;21051;-71
2021/06/09 05:18:44;;;;;;;7.17;6.47;;;;;;;18.82;80.56;99298.41;1678619;85;21079;-71
2021/06/09 05:21:10;;;;;;;6.83;5.78;;;;;;;18.89;80.07;99302.86;1678763;85;21512;-71
2021/06/09 05:23:42;;;;;;;6.35;5.50;;;;;;;18.94;79.54;99299.44;1678683;84;21012;-71
2021/06/09 05:26:10;;;;;;;6.03;5.25;;;;;;;18.99;79.09;99307.45;1678642;85;21008;-72
2021/06/09 05:28:45;;;;;;;7.20;6.00;;;;;;;19.06;78.66;99309.17;1678736;84;21720;-71
2021/06/09 05:31:12;;;;;;;8.18;4.78;;;;;;;19.13;78.20;99305.45;1678763;85;21127;-72
2021/06/09 05:33:38;;;;;;;6.12;5.28;;;;;;;19.21;77.42;99312.04;1657066;85;21579;-71
2021/06/09 05:36:05;;;;;;;5.42;4.92;;;;;;;19.27;76.73;99311.34;1657380;85;21050;-70
2021/06/09 05:38:32;;;;;;;6.12;5.50;;;;;;;19.33;76.49;99314.17;1663490;85;21597;-69
2021/06/09 05:40:59;;;;;;;4.92;4.45;;;;;;;19.39;76.04;99318.34;1659860;85;21128;-72
2021/06/09 05:43:27;;;;;;;7.20;5.35;;;;;;;19.44;75.15;99318.22;1678922;85;21113;-69
2021/06/09 05:45:55;;;;;;;7.03;4.90;;;;;;;19.47;74.50;99317.61;1678688;85;21524;-72
2021/06/09 05:48:21;;;;;;;5.42;4.95;;;;;;;19.52;74.42;99327.78;1657284;85;21019;-72
2021/06/09 05:50:52;;;;;;;4.58;4.17;;;;;;;19.60;74.50;99322.13;1678506;85;21559;-71
2021/06/09 05:53:18;;;;;;;6.97;5.33;;;;;;;19.68;73.96;99319.16;1679035;84;20951;-71
2021/06/09 05:55:47;;;;;;;4.30;3.90;;;;;;;19.76;73.81;99321.11;1678630;84;21077;-72
2021/06/09 05:58:24;;;;;;;6.70;4.90;;;;;;;19.82;73.96;99317.89;1656843;85;20928;-70
2021/06/09 06:00:55;;;;;;;8.40;4.78;;;;;;;19.87;73.41;99322.39;1678756;85;21063;-72
2021/06/09 06:03:22;;;;;;;6.33;4.10;;;;;;;19.88;71.97;99317.17;1656531;85;21015;-71
2021/06/09 06:05:51;;;;;;;5.25;4.08;;;;;;;19.92;72.34;99322.23;1678581;85;21115;-72
2021/06/09 06:08:17;;;;;;;10.45;4.65;;;;;;;19.98;72.25;99322.33;1678946;85;21513;-71
2021/06/09 06:10:44;;;;;;;4.95;4.55;;;;;;;20.03;72.37;99324.34;1678644;85;21043;-71
2021/06/09 06:13:11;;;;;;;5.78;4.25;;;;;;;20.07;72.27;99322.32;1678626;85;21058;-71
2021/06/09 06:15:39;;;;;;;6.37;4.70;;;;;;;20.10;72.03;99322.47;1678798;84;20900;-73
2021/06/09 06:18:06;;;;;;;4.50;4.20;;;;;;;20.12;71.84;99317.51;1678805;85;21003;-72
2021/06/09 06:20:32;;;;;;;6.45;4.03;;;;;;;20.16;71.59;99325.84;1678745;85;21043;-71
2021/06/09 06:22:59;;;;;;;4.37;3.60;;;;;;;20.18;69.93;99318.95;1656960;85;21630;-71
2021/06/09 06:25:25;;;;;;;3.70;3.40;;;;;;;20.19;67.97;99318.40;1647764;86;21907;-70
2021/06/09 06:27:55;;;;;;;7.67;3.65;;;;;;;20.20;67.67;99322.16;1666370;86;21029;-70
2021/06/09 06:30:24;;;;;;;2.87;2.58;;;;;;;20.24;65.81;99325.06;1666642;85;20980;-71
2021/06/09 06:32:55;;;;;;;5.55;4.45;;;;;;;20.28;64.58;99325.46;1666417;86;21592;-72
2021/06/09 06:35:24;;;;;;;3.83;3.20;;;;;;;20.33;64.93;99327.25;1666664;85;20997;-72
2021/06/09 06:37:50;;;;;;;5.25;3.05;;;;;;;20.37;65.18;99317.28;1666382;84;21113;-70
2021/06/09 06:40:26;;;;;;;5.42;4.10;;;;;;;20.41;65.71;99323.70;1666535;86;21590;-71
2021/06/09 06:42:52;;;;;;;4.40;3.77;;;;;;;20.46;66.21;99327.63;1644076;86;20975;-71
2021/06/09 06:45:20;;;;;;;3.72;3.42;;;;;;;20.51;67.05;99320.64;1645932;86;21053;-71
2021/06/09 06:47:47;;;;;;;3.87;3.58;;;;;;;20.55;67.08;99320.22;1667956;85;20957;-71
2021/06/09 06:50:14;;;;;;;3.33;3.02;;;;;;;20.59;67.09;99323.91;1640584;86;21599;-70
2021/06/09 06:52:42;;;;;;;2.98;2.75;;;;;;;20.69;66.42;99329.03;1666629;85;21533;-71
2021/06/09 06:55:09;;;;;;;3.90;3.60;;;;;;;20.69;66.42;99329.03;1666471;86;21074;-72
2021/06/09 06:57:35;;;;;;;2.75;2.55;;;;;;;20.74;66.05;99322.58;1666406;84;21048;-72
2021/06/09 07:00:13;;;;;;;2.70;2.50;;;;;;;20.75;64.43;99331.03;1666795;86;21049;-69
2021/06/09 07:02:40;;;;;;;4.92;3.15;;;;;;;20.76;64.31;99332.08;1641331;86;21109;-71
2021/06/09 07:05:08;;;;;;;3.37;3.12;;;;;;;20.78;64.79;99324.90;1666862;86;21022;-70
2021/06/09 07:07:34;;;;;;;3.70;3.40;;;;;;;20.82;65.00;99321.75;1666629;86;21791;-70
2021/06/09 07:10:04;;;;;;;3.22;2.60;;;;;;;20.85;64.91;99321.11;1666824;85;21105;-72
2021/06/09 07:12:30;;;;;;;3.20;2.90;;;;;;;20.91;64.11;99321.16;1640014;86;21044;-71
2021/06/09 07:14:57;;;;;;;3.22;3.02;;;;;;;20.93;64.44;99320.27;1666397;86;21054;-71
2021/06/09 07:17:23;;;;;;;4.83;2.90;;;;;;;20.95;64.45;99324.06;1666538;86;20966;-70
2021/06/09 07:19:50;;;;;;;2.75;2.55;;;;;;;21.00;64.02;99315.67;1666411;86;21068;-69
2021/06/09 07:22:16;;;;;;;3.17;2.87;;;;;;;21.08;63.27;99318.94;1640024;86;21064;-71
2021/06/09 07:24:42;;;;;;;2.75;2.55;;;;;;;21.14;62.86;99317.66;1666464;85;21541;-71
2021/06/09 07:27:09;;;;;;;4.65;3.22;;;;;;;21.23;62.40;99314.31;1639684;86;20997;-72
2021/06/09 07:29:37;;;;;;;5.85;2.83;;;;;;;21.29;62.18;99319.25;1639774;86;21110;-69
2021/06/09 07:32:06;;;;;;;2.95;2.58;;;;;;;21.35;61.77;99316.33;1666469;85;21021;-71
2021/06/09 07:34:32;;;;;;;5.53;3.55;;;;;;;21.39;60.83;99318.08;1669993;85;21135;-72
2021/06/09 07:37:02;;;;;;;3.90;2.83;;;;;;;21.43;60.18;99323.15;1680130;85;21040;-70
2021/06/09 07:39:37;;;;;;;7.12;2.65;;;;;;;21.48;60.57;99331.17;1674346;84;21404;-70
2021/06/09 07:42:10;;;;;;;4.33;2.85;;;;;;;21.50;60.64;99323.98;1666448;85;20993;-71
2021/06/09 07:44:41;;;;;;;4.97;2.90;;;;;;;21.53;60.52;99319.23;1666575;85;21017;-71
2021/06/09 07:47:10;;;;;;;3.22;2.35;;;;;;;21.57;61.12;99322.91;1650719;86;21088;-70
2021/06/09 07:49:37;;;;;;;3.60;3.27;;;;;;;21.61;60.73;99319.73;1639657;86;21526;-70
2021/06/09 07:52:06;;;;;;;3.83;3.33;;;;;;;21.66;59.99;99318.98;1618344;86;20961;-72
2021/06/09 07:54:33;;;;;;;2.87;2.67;;;;;;;21.73;59.73;99322.54;1599781;86;21057;-72
2021/06/09 07:57:00;;;;;;;5.80;2.52;;;;;;;21.80;58.94;99320.66;1666968;85;21529;-71
2021/06/09 07:59:27;;;;;;;2.98;2.70;;;;;;;21.84;58.36;99326.50;1639929;86;21331;-71
2021/06/09 08:01:54;;;;;;;2.92;2.72;;;;;;;21.91;57.98;99319.94;1666587;85;20997;-70
2021/06/09 08:04:21;;;;;;;9.88;4.67;;;;;;;21.95;57.09;99322.83;1639950;86;21520;-69
2021/06/09 08:06:49;;;;;;;4.25;3.37;;;;;;;21.98;56.89;99327.63;1666478;84;21053;-70
2021/06/09 08:09:15;;;;;;;5.15;2.75;;;;;;;22.01;56.42;99319.57;1666587;86;21081;-70
2021/06/09 08:11:43;;;;;;;9.73;3.70;;;;;;;22.05;57.20;99316.95;1636693;86;21032;-72
2021/06/09 08:14:16;;;;;;;3.35;3.05;;;;;;;22.10;57.03;99316.19;1641689;86;21081;-69
2021/06/09 08:16:42;;;;;;;4.45;2.40;;;;;;;22.14;56.34;99317.69;1621094;86;21002;-71
2021/06/09 08:19:09;;;;;;;3.52;2.95;;;;;;;22.14;56.33;99319.86;1666739;86;21035;-72
2021/06/09 08:21:36;;;;;;;3.37;2.72;;;;;;;22.22;56.43;99322.28;1641758;86;21010;-71
2021/06/09 08:24:05;;;;;;;11.60;2.67;;;;;;;22.29;55.99;99332.14;1666586;85;21925;-71
2021/06/09 08:26:32;;;;;;;4.30;2.72;;;;;;;22.35;55.51;99317.07;1666152;86;21092;-71
2021/06/09 08:28:58;;;;;;;4.22;2.62;;;;;;;22.43;55.40;99317.58;1642706;86;21002;-71
2021/06/09 08:31:28;;;;;;;2.75;2.55;;;;;;;22.50;55.39;99311.53;1579046;89;21098;-71
2021/06/09 08:33:56;;;;;;;4.30;2.60;;;;;;;22.55;55.50;99320.91;1612904;88;21010;-69
2021/06/09 08:36:23;;;;;;;3.92;3.30;;;;;;;22.61;54.75;99324.48;1613739;88;21142;-69
2021/06/09 08:38:54;;;;;;;3.85;2.65;;;;;;;22.66;55.03;99315.25;1612026;89;21034;-71
2021/06/09 08:41:29;;;;;;;2.50;2.30;;;;;;;22.71;54.56;99317.80;1589381;89;21125;-69
2021/06/09 08:43:57;;;;;;;2.40;2.15;;;;;;;22.73;54.41;99321.02;1564449;90;21106;-72
2021/06/09 08:46:23;;;;;;;3.60;2.10;;;;;;;22.77;54.06;99330.73;1604411;89;21098;-73
2021/06/09 08:48:50;;;;;;;2.42;2.22;;;;;;;22.79;53.52;99330.61;1638140;87;21566;-69
2021/06/09 08:51:18;;;;;;;4.78;2.77;;;;;;;22.86;53.32;99321.84;1638670;87;20977;-70
2021/06/09 08:53:48;;;;;;;2.52;2.27;;;;;;;22.91;52.49;99321.62;1612373;89;20997;-72
2021/06/09 08:56:14;;;;;;;5.67;2.60;;;;;;;22.97;52.46;99316.15;1584693;89;21116;-72
2021/06/09 08:58:41;;;;;;;3.67;2.67;;;;;;;23.01;51.84;99325.30;1662613;85;21071;-69
2021/06/09 09:01:08;;;;;;;3.67;2.50;;;;;;;23.01;51.92;99314.32;1612134;87;21960;-69
2021/06/09 09:03:41;;;;;;;6.83;3.80;;;;;;;23.05;51.94;99320.72;1634112;87;21322;-68
2021/06/09 09:06:08;;;;;;;7.67;2.92;;;;;;;23.12;51.85;99326.43;1640535;86;21038;-68
2021/06/09 09:08:34;;;;;;;2.50;2.22;;;;;;;23.21;51.71;99320.29;1614627;87;20981;-68
2021/06/09 09:11:01;;;;;;;2.92;2.72;;;;;;;23.29;50.31;99311.70;1639864;86;21570;-72
2021/06/09 09:13:28;;;;;;;2.70;2.33;;;;;;;23.37;49.58;99305.28;1617314;87;21104;-71
2021/06/09 09:15:55;;;;;;;7.62;3.00;;;;;;;23.45;49.46;99301.67;1639782;87;20977;-72
2021/06/09 09:18:44;;;;;;;3.30;3.00;;;;;;;23.55;49.76;99307.27;1637261;87;21546;-71
2021/06/09 09:21:18;;;;;;;7.55;3.20;;;;;;;23.62;49.27;99300.04;1646595;87;21579;-70
2021/06/09 09:23:48;;;;;;;2.42;2.25;;;;;;;23.69;49.48;99297.49;1635677;85;21002;-72
2021/06/09 09:26:29;;;;;;;3.20;2.90;;;;;;;23.75;48.29;99293.37;1678395;85;21173;-71
2021/06/09 09:29:13;;;;;;;3.25;2.95;;;;;;;23.79;46.78;99297.59;1678295;85;21015;-70
2021/06/09 09:31:56;;;;;;;3.20;2.92;;;;;;;23.84;47.41;99290.48;1677122;85;21606;-72
2021/06/09 09:34:42;;;;;;;2.70;2.45;;;;;;;23.92;47.53;99277.77;1678814;85;21041;-73
2021/06/09 09:37:20;;;;;;;4.22;3.83;;;;;;;24.01;47.52;99279.80;1657176;85;21059;-74
2021/06/09 09:39:50;;;;;;;3.15;2.95;;;;;;;24.12;47.47;99283.09;1655341;85;21816;-73
2021/06/09 09:42:22;;;;;;;5.70;3.27;;;;;;;24.27;50.32;99278.22;1657081;85;20927;-72
2021/06/09 09:44:49;;;;;;;4.03;3.72;;;;;;;24.32;51.09;99280.72;1678418;85;20999;-74
2021/06/09 09:47:21;;;;;;;3.72;3.42;;;;;;;24.30;50.58;99276.16;1662685;85;20970;-73
2021/06/09 09:49:49;;;;;;;3.72;3.42;;;;;;;24.23;50.47;99275.95;1657602;85;21038;-74
2021/06/09 09:52:16;;;;;;;4.60;3.50;;;;;;;24.13;51.02;99263.25;1670462;85;21777;-74
2021/06/09 09:54:44;;;;;;;7.45;4.15;;;;;;;24.07;51.53;99261.35;1678628;85;21473;-74
2021/06/09 09:57:15;;;;;;;13.68;3.45;;;;;;;24.02;51.66;99252.55;1678639;85;21595;-71
2021/06/09 09:59:41;;;;;;;4.00;3.08;;;;;;;23.99;51.81;99262.85;1645508;85;21057;-70
2021/06/09 10:02:17;;;;;;;3.52;3.22;;;;;;;24.06;51.15;99259.75;1613187;87;21561;-69
2021/06/09 10:04:51;;;;;;;4.15;3.17;;;;;;;24.18;50.36;99254.79;1630627;86;21119;-70
2021/06/09 10:07:12;;;;;;;3.25;2.98;;;;;;;24.31;50.20;99253.03;1645159;87;21003;-71
2021/06/09 10:09:43;;;;;;;5.15;3.25;;;;;;;24.42;50.04;99250.55;1644217;86;21080;-70
2021/06/09 10:12:15;;;;;;;3.85;3.42;;;;;;;24.50;49.67;99235.85;1657461;85;21055;-70
2021/06/09 10:14:48;;;;;;;3.72;3.25;;;;;;;24.56;49.25;99234.42;1678520;85;21011;-70
2021/06/09 10:17:21;;;;;;;3.85;3.55;;;;;;;24.61;48.65;99235.53;1678560;85;21153;-70
2021/06/09 10:19:58;;;;;;;3.62;3.33;;;;;;;24.62;47.80;99240.45;1657013;85;21066;-68
2021/06/09 10:22:35;;;;;;;3.17;2.87;;;;;;;24.65;48.16;99238.39;1678899;85;21531;-73
2021/06/09 10:25:06;;;;;;;3.67;3.37;;;;;;;24.74;48.10;99238.44;1678906;84;21055;-78
2021/06/09 10:27:39;;;;;;;3.27;2.98;;;;;;;24.93;46.93;99215.74;1657451;85;21139;-70
2021/06/09 10:30:26;;;;;;;5.03;3.40;;;;;;;25.11;45.93;99218.91;1678884;85;22156;-72
2021/06/09 10:33:01;;;;;;;2.85;2.65;;;;;;;25.19;46.40;99215.16;1656951;85;20987;-69
2021/06/09 10:35:34;;;;;;;3.87;2.90;;;;;;;25.32;45.50;99219.41;1678685;85;21039;-71
2021/06/09 10:38:02;;;;;;;4.05;3.65;;;;;;;25.35;45.02;99222.01;1678552;85;21023;-69
2021/06/09 10:40:29;;;;;;;4.12;3.35;;;;;;;25.35;46.11;99226.94;1678697;85;21484;-70
2021/06/09 10:42:59;;;;;;;11.65;3.85;;;;;;;25.47;45.89;99224.05;1657192;85;21180;-71
2021/06/09 10:45:26;;;;;;;3.30;3.05;;;;;;;25.64;45.84;99220.70;1678447;85;21587;-70
2021/06/09 10:47:58;;;;;;;2.98;2.77;;;;;;;25.78;44.96;99219.62;1678793;84;21095;-76
2021/06/09 10:50:25;;;;;;;3.75;3.45;;;;;;;25.79;44.77;99217.89;1678813;83;21053;-77
2021/06/09 10:52:53;;;;;;;4.72;3.27;;;;;;;25.74;45.73;99217.38;1678858;84;21076;-77
2021/06/09 10:55:20;;;;;;;3.52;3.17;;;;;;;25.71;45.24;99215.36;1679263;83;21111;-73
2021/06/09 10:57:51;;;;;;;3.37;3.05;;;;;;;25.78;44.28;99214.11;1678812;83;20983;-71
2021/06/09 11:00:18;;;;;;;2.67;2.47;;;;;;;25.78;43.94;99217.67;1658642;85;21014;-80
2021/06/09 11:02:44;;;;;;;3.25;3.02;;;;;;;25.82;42.95;99206.71;1678964;85;21097;-77
2021/06/09 11:05:12;;;;;;;4.92;3.83;;;;;;;25.81;43.68;99207.28;1677428;84;20987;-72
2021/06/09 11:07:41;;;;;;;4.58;3.70;;;;;;;25.81;44.46;99200.40;1656874;85;21060;-72
2021/06/09 11:10:15;;;;;;;3.87;3.58;;;;;;;25.79;44.89;99195.84;1656787;85;21014;-70
2021/06/09 11:12:49;;;;;;;3.55;3.05;;;;;;;25.75;45.06;99185.92;1656776;85;21019;-69
2021/06/09 11:15:23;;;;;;;3.55;3.25;;;;;;;25.67;45.43;99179.45;1657115;85;21120;-69
2021/06/09 11:17:53;;;;;;;4.30;2.80;;;;;;;25.58;45.45;99185.76;1678711;85;21543;-70
2021/06/09 11:20:32;;;;;;;3.47;3.17;;;;;;;25.44;44.45;99191.73;1678904;84;21143;-71
2021/06/09 11:23:06;;;;;;;11.35;3.80;;;;;;;25.36;45.08;99191.95;1657138;85;21031;-71
2021/06/09 11:25:40;;;;;;;3.52;3.15;;;;;;;25.42;44.20;99191.28;1656604;85;21055;-70
2021/06/09 11:28:22;;;;;;;3.30;3.05;;;;;;;25.52;42.99;99186.59;1643736;86;21099;-69
2021/06/09 11:30:58;;;;;;;3.22;2.95;;;;;;;25.64;43.15;99173.30;1675486;85;21059;-71
2021/06/09 11:33:54;;;;;;;6.78;2.80;;;;;;;25.79;42.00;99173.01;1677149;85;21915;-77
2021/06/09 11:36:27;;;;;;;2.70;2.52;;;;;;;25.92;42.94;99162.04;1612992;89;21563;-72
2021/06/09 11:39:05;;;;;;;5.33;3.63;;;;;;;25.99;43.09;99174.59;1649828;87;21074;-67
2021/06/09 11:41:41;;;;;;;3.08;2.85;;;;;;;26.03;43.26;99168.56;1638125;87;21084;-73
2021/06/09 11:44:31;;;;;;;3.65;3.35;;;;;;;26.01;44.04;99176.38;1617024;87;21076;-71
2021/06/09 11:47:27;;;;;;;4.72;4.12;;;;;;;25.88;46.57;99177.71;1651197;87;21150;-75